sensor_id;sensor_type;location;lat;lon;timestamp;temperature;humidity
7684;DHT22;3884;48.616;12.872;2023-04-21T00:00:49;8.40;1.00
7684;DHT22;3884;48.616;12.872;2023-04-21T00:03:17;8.30;99.90
7684;DHT22;3884;48.616;12.872;2023-04-21T00:05:46;8.30;1.00
7684;DHT22;3884;48.616;12.872;2023-04-21T00:08:13;8.30;91.30
7684;DHT22;3884;48.616;12.872;2023-04-21T00:10:41;8.30;99.90
7684;DHT22;3884;48.616;12.872;2023-04-21T00:13:08;8.40;1.00
7684;DHT22;3884;48.616;12.872;2023-04-21T00:15:36;8.40;25.40
7684;DHT22;3884;48.616;12.872;2023-04-21T00:18:03;8.30;99.90
7684;DHT22;3884;48.616;12.872;2023-04-21T00:20:31;8.30;99.90
7684;DHT22;3884;48.616;12.872;2023-04-21T00:22:58;8.60;1.00
7684;DHT22;3884;48.616;12.872;2023-04-21T00:25:25;8.40;99.90
7684;DHT22;3884;48.616;12.872;2023-04-21T00:27:52;8.40;1.00
7684;DHT22;3884;48.616;12.872;2023-04-21T00:30:19;8.30;3.00
7684;DHT22;3884;48.616;12.872;2023-04-21T00:32:47;8.30;99.90
7684;DHT22;3884;48.616;12.872;2023-04-21T00:35:14;8.40;1.00
7684;DHT22;3884;48.616;12.872;2023-04-21T00:37:41;8.40;99.90
7684;DHT22;3884;48.616;12.872;2023-04-21T00:40:10;8.40;99.90
7684;DHT22;3884;48.616;12.872;2023-04-21T00:42:39;8.40;1.00
7684;DHT22;3884;48.616;12.872;2023-04-21T00:45:07;8.40;99.90
7684;DHT22;3884;48.616;12.872;2023-04-21T00:47:34;8.30;1.00
7684;DHT22;3884;48.616;12.872;2023-04-21T00:50:02;8.40;1.00
7684;DHT22;3884;48.616;12.872;2023-04-21T00:52:29;8.40;1.00
7684;DHT22;3884;48.616;12.872;2023-04-21T00:54:56;8.40;99.90
7684;DHT22;3884;48.616;12.872;2023-04-21T00:57:24;8.40;99.90
7684;DHT22;3884;48.616;12.872;2023-04-21T00:59:53;8.40;99.90
7684;DHT22;3884;48.616;12.872;2023-04-21T01:02:20;8.40;99.90
7684;DHT22;3884;48.616;12.872;2023-04-21T01:04:48;8.40;1.00
7684;DHT22;3884;48.616;12.872;2023-04-21T01:07:16;8.30;1.00
7684;DHT22;3884;48.616;12.872;2023-04-21T01:09:43;8.30;91.30
7684;DHT22;3884;48.616;12.872;2023-04-21T01:12:10;8.40;1.00
7684;DHT22;3884;48.616;12.872;2023-04-21T01:14:39;8.50;99.90
7684;DHT22;3884;48.616;12.872;2023-04-21T01:17:06;8.40;99.90
7684;DHT22;3884;48.616;12.872;2023-04-21T01:19:36;8.30;99.90
7684;DHT22;3884;48.616;12.872;2023-04-21T01:22:08;8.30;1.00
7684;DHT22;3884;48.616;12.872;2023-04-21T01:24:37;8.30;23.00
7684;DHT22;3884;48.616;12.872;2023-04-21T01:27:08;8.30;1.00
7684;DHT22;3884;48.616;12.872;2023-04-21T01:29:36;8.20;1.00
7684;DHT22;3884;48.616;12.872;2023-04-21T01:32:05;8.00;1.00
7684;DHT22;3884;48.616;12.872;2023-04-21T01:34:32;8.00;1.00
7684;DHT22;3884;48.616;12.872;2023-04-21T01:36:59;7.90;22.20
7684;DHT22;3884;48.616;12.872;2023-04-21T01:39:28;7.90;1.00
7684;DHT22;3884;48.616;12.872;2023-04-21T01:41:56;7.80;99.90
7684;DHT22;3884;48.616;12.872;2023-04-21T01:44:24;7.80;99.90
7684;DHT22;3884;48.616;12.872;2023-04-21T01:46:51;7.90;1.00
7684;DHT22;3884;48.616;12.872;2023-04-21T01:49:18;7.80;1.00
7684;DHT22;3884;48.616;12.872;2023-04-21T01:51:45;7.80;55.70
7684;DHT22;3884;48.616;12.872;2023-04-21T01:54:11;7.80;1.00
7684;DHT22;3884;48.616;12.872;2023-04-21T01:56:40;7.70;99.90
7684;DHT22;3884;48.616;12.872;2023-04-21T01:59:07;7.60;1.00
7684;DHT22;3884;48.616;12.872;2023-04-21T02:01:34;7.60;1.00
7684;DHT22;3884;48.616;12.872;2023-04-21T02:04:03;7.50;1.00
7684;DHT22;3884;48.616;12.872;2023-04-21T02:06:30;7.40;64.40
7684;DHT22;3884;48.616;12.872;2023-04-21T02:08:57;7.40;99.90
7684;DHT22;3884;48.616;12.872;2023-04-21T02:11:26;7.40;99.90
7684;DHT22;3884;48.616;12.872;2023-04-21T02:13:55;7.40;1.00
7684;DHT22;3884;48.616;12.872;2023-04-21T02:16:22;7.20;1.00
7684;DHT22;3884;48.616;12.872;2023-04-21T02:18:51;7.40;99.90
7684;DHT22;3884;48.616;12.872;2023-04-21T02:21:18;7.40;1.00
7684;DHT22;3884;48.616;12.872;2023-04-21T02:23:47;7.40;1.00
7684;DHT22;3884;48.616;12.872;2023-04-21T02:26:15;7.40;99.90
7684;DHT22;3884;48.616;12.872;2023-04-21T02:28:42;7.40;99.90
7684;DHT22;3884;48.616;12.872;2023-04-21T02:31:10;7.20;99.90
7684;DHT22;3884;48.616;12.872;2023-04-21T02:33:38;7.20;1.00
7684;DHT22;3884;48.616;12.872;2023-04-21T02:36:05;7.10;1.00
7684;DHT22;3884;48.616;12.872;2023-04-21T02:38:32;7.00;1.00
7684;DHT22;3884;48.616;12.872;2023-04-21T02:41:00;7.00;1.00
7684;DHT22;3884;48.616;12.872;2023-04-21T02:43:27;7.10;1.00
7684;DHT22;3884;48.616;12.872;2023-04-21T02:45:54;7.00;1.00
7684;DHT22;3884;48.616;12.872;2023-04-21T02:48:22;7.00;1.00
7684;DHT22;3884;48.616;12.872;2023-04-21T02:50:50;7.00;1.00
7684;DHT22;3884;48.616;12.872;2023-04-21T02:53:18;6.90;1.00
7684;DHT22;3884;48.616;12.872;2023-04-21T02:55:45;7.00;1.00
7684;DHT22;3884;48.616;12.872;2023-04-21T02:58:12;6.90;1.00
7684;DHT22;3884;48.616;12.872;2023-04-21T03:00:40;6.70;1.00
7684;DHT22;3884;48.616;12.872;2023-04-21T03:03:07;6.80;1.00
7684;DHT22;3884;48.616;12.872;2023-04-21T03:05:35;6.80;1.00
7684;DHT22;3884;48.616;12.872;2023-04-21T03:08:02;6.80;1.00
7684;DHT22;3884;48.616;12.872;2023-04-21T03:10:29;6.80;1.00
7684;DHT22;3884;48.616;12.872;2023-04-21T03:12:56;6.80;1.00
7684;DHT22;3884;48.616;12.872;2023-04-21T03:15:23;6.80;99.90
7684;DHT22;3884;48.616;12.872;2023-04-21T03:17:49;6.60;94.80
7684;DHT22;3884;48.616;12.872;2023-04-21T03:20:16;6.60;99.90
7684;DHT22;3884;48.616;12.872;2023-04-21T03:22:44;6.70;99.90
7684;DHT22;3884;48.616;12.872;2023-04-21T03:25:11;6.60;99.90
7684;DHT22;3884;48.616;12.872;2023-04-21T03:27:38;6.50;99.90
7684;DHT22;3884;48.616;12.872;2023-04-21T03:30:06;6.40;1.00
7684;DHT22;3884;48.616;12.872;2023-04-21T03:32:33;6.30;1.00
7684;DHT22;3884;48.616;12.872;2023-04-21T03:35:00;6.40;60.10
7684;DHT22;3884;48.616;12.872;2023-04-21T03:37:27;6.40;99.90
7684;DHT22;3884;48.616;12.872;2023-04-21T03:39:55;6.40;99.90
7684;DHT22;3884;48.616;12.872;2023-04-21T03:42:22;6.30;1.00
7684;DHT22;3884;48.616;12.872;2023-04-21T03:44:50;6.20;1.00
7684;DHT22;3884;48.616;12.872;2023-04-21T03:47:17;6.20;1.00
7684;DHT22;3884;48.616;12.872;2023-04-21T03:49:44;6.20;1.00
7684;DHT22;3884;48.616;12.872;2023-04-21T03:52:11;6.20;1.00
7684;DHT22;3884;48.616;12.872;2023-04-21T03:54:38;6.10;1.00
7684;DHT22;3884;48.616;12.872;2023-04-21T03:57:06;6.10;1.00
7684;DHT22;3884;48.616;12.872;2023-04-21T03:59:33;6.00;1.00
7684;DHT22;3884;48.616;12.872;2023-04-21T04:01:59;6.00;1.00
7684;DHT22;3884;48.616;12.872;2023-04-21T04:04:26;6.00;1.00
7684;DHT22;3884;48.616;12.872;2023-04-21T04:06:53;6.00;1.00
7684;DHT22;3884;48.616;12.872;2023-04-21T04:09:20;5.90;1.00
7684;DHT22;3884;48.616;12.872;2023-04-21T04:11:47;5.80;1.00
7684;DHT22;3884;48.616;12.872;2023-04-21T04:14:15;5.70;1.00
7684;DHT22;3884;48.616;12.872;2023-04-21T04:16:42;5.70;1.00
7684;DHT22;3884;48.616;12.872;2023-04-21T04:19:08;5.80;1.00
7684;DHT22;3884;48.616;12.872;2023-04-21T04:21:36;5.90;1.00
7684;DHT22;3884;48.616;12.872;2023-04-21T04:24:03;5.90;1.00
7684;DHT22;3884;48.616;12.872;2023-04-21T04:26:30;5.90;99.90
7684;DHT22;3884;48.616;12.872;2023-04-21T04:28:59;5.90;99.90
7684;DHT22;3884;48.616;12.872;2023-04-21T04:31:28;5.90;99.90
7684;DHT22;3884;48.616;12.872;2023-04-21T04:33:55;5.70;1.00
7684;DHT22;3884;48.616;12.872;2023-04-21T04:36:22;5.80;1.00
7684;DHT22;3884;48.616;12.872;2023-04-21T04:38:49;5.90;1.00
7684;DHT22;3884;48.616;12.872;2023-04-21T04:41:16;5.90;1.00
7684;DHT22;3884;48.616;12.872;2023-04-21T04:43:44;5.90;1.00
7684;DHT22;3884;48.616;12.872;2023-04-21T04:46:11;5.90;1.00
7684;DHT22;3884;48.616;12.872;2023-04-21T04:48:39;5.90;99.90
7684;DHT22;3884;48.616;12.872;2023-04-21T04:51:06;5.90;99.90
7684;DHT22;3884;48.616;12.872;2023-04-21T04:53:32;5.90;99.90
7684;DHT22;3884;48.616;12.872;2023-04-21T04:55:59;5.90;99.90
7684;DHT22;3884;48.616;12.872;2023-04-21T04:58:26;5.90;1.00
7684;DHT22;3884;48.616;12.872;2023-04-21T05:00:53;6.00;1.00
7684;DHT22;3884;48.616;12.872;2023-04-21T05:03:20;6.00;1.00
7684;DHT22;3884;48.616;12.872;2023-04-21T05:05:48;6.00;1.00
7684;DHT22;3884;48.616;12.872;2023-04-21T05:08:15;6.00;1.00
7684;DHT22;3884;48.616;12.872;2023-04-21T05:10:42;6.20;1.00
7684;DHT22;3884;48.616;12.872;2023-04-21T05:13:08;6.30;1.00
7684;DHT22;3884;48.616;12.872;2023-04-21T05:15:35;6.40;1.00
7684;DHT22;3884;48.616;12.872;2023-04-21T05:18:02;6.50;1.00
7684;DHT22;3884;48.616;12.872;2023-04-21T05:20:29;6.50;1.00
7684;DHT22;3884;48.616;12.872;2023-04-21T05:22:57;6.60;1.00
7684;DHT22;3884;48.616;12.872;2023-04-21T05:25:24;6.60;1.00
7684;DHT22;3884;48.616;12.872;2023-04-21T05:27:51;6.70;70.70
7684;DHT22;3884;48.616;12.872;2023-04-21T05:30:17;6.80;99.90
7684;DHT22;3884;48.616;12.872;2023-04-21T05:32:44;6.90;99.90
7684;DHT22;3884;48.616;12.872;2023-04-21T05:35:11;7.10;99.90
7684;DHT22;3884;48.616;12.872;2023-04-21T05:37:38;7.20;99.90
7684;DHT22;3884;48.616;12.872;2023-04-21T05:40:07;7.20;99.90
7684;DHT22;3884;48.616;12.872;2023-04-21T05:42:34;7.30;99.90
7684;DHT22;3884;48.616;12.872;2023-04-21T05:45:00;7.50;99.90
7684;DHT22;3884;48.616;12.872;2023-04-21T05:47:28;7.60;99.90
7684;DHT22;3884;48.616;12.872;2023-04-21T05:49:55;7.80;99.90
7684;DHT22;3884;48.616;12.872;2023-04-21T05:52:22;7.90;38.80
7684;DHT22;3884;48.616;12.872;2023-04-21T05:54:48;8.00;36.80
7684;DHT22;3884;48.616;12.872;2023-04-21T05:57:17;8.10;71.50
7684;DHT22;3884;48.616;12.872;2023-04-21T05:59:44;8.30;99.90
7684;DHT22;3884;48.616;12.872;2023-04-21T06:02:10;8.30;41.40
7684;DHT22;3884;48.616;12.872;2023-04-21T06:04:37;8.40;8.00
7684;DHT22;3884;48.616;12.872;2023-04-21T06:07:05;8.50;1.00
7684;DHT22;3884;48.616;12.872;2023-04-21T06:09:32;8.50;1.00
7684;DHT22;3884;48.616;12.872;2023-04-21T06:11:59;8.60;1.00
7684;DHT22;3884;48.616;12.872;2023-04-21T06:14:28;8.70;1.00
7684;DHT22;3884;48.616;12.872;2023-04-21T06:16:54;8.70;1.00
7684;DHT22;3884;48.616;12.872;2023-04-21T06:19:21;8.80;1.00
7684;DHT22;3884;48.616;12.872;2023-04-21T06:21:48;8.80;1.00
7684;DHT22;3884;48.616;12.872;2023-04-21T06:24:15;9.00;1.00
7684;DHT22;3884;48.616;12.872;2023-04-21T06:26:49;9.00;1.00
7684;DHT22;3884;48.616;12.872;2023-04-21T06:29:16;9.10;1.00
7684;DHT22;3884;48.616;12.872;2023-04-21T06:31:44;9.20;1.00
7684;DHT22;3884;48.616;12.872;2023-04-21T06:34:11;9.30;69.50
7684;DHT22;3884;48.616;12.872;2023-04-21T06:36:38;9.50;99.90
7684;DHT22;3884;48.616;12.872;2023-04-21T06:39:05;9.80;99.90
7684;DHT22;3884;48.616;12.872;2023-04-21T06:41:31;10.10;99.90
7684;DHT22;3884;48.616;12.872;2023-04-21T06:43:58;10.30;1.00
7684;DHT22;3884;48.616;12.872;2023-04-21T06:46:25;10.40;99.90
7684;DHT22;3884;48.616;12.872;2023-04-21T06:48:54;10.60;1.00
7684;DHT22;3884;48.616;12.872;2023-04-21T06:51:20;10.70;99.90
7684;DHT22;3884;48.616;12.872;2023-04-21T06:53:47;10.80;99.90
7684;DHT22;3884;48.616;12.872;2023-04-21T06:56:14;10.80;99.90
7684;DHT22;3884;48.616;12.872;2023-04-21T06:58:41;11.00;99.90
7684;DHT22;3884;48.616;12.872;2023-04-21T07:01:08;11.20;80.00
7684;DHT22;3884;48.616;12.872;2023-04-21T07:03:35;11.20;1.00
7684;DHT22;3884;48.616;12.872;2023-04-21T07:06:03;11.10;1.00
7684;DHT22;3884;48.616;12.872;2023-04-21T07:08:30;11.30;99.90
7684;DHT22;3884;48.616;12.872;2023-04-21T07:10:57;11.30;1.00
7684;DHT22;3884;48.616;12.872;2023-04-21T07:13:24;11.40;1.00
7684;DHT22;3884;48.616;12.872;2023-04-21T07:15:50;11.30;1.00
7684;DHT22;3884;48.616;12.872;2023-04-21T07:18:17;11.40;1.00
7684;DHT22;3884;48.616;12.872;2023-04-21T07:20:44;11.40;99.90
7684;DHT22;3884;48.616;12.872;2023-04-21T07:23:12;11.20;99.90
7684;DHT22;3884;48.616;12.872;2023-04-21T07:25:39;11.40;99.90
7684;DHT22;3884;48.616;12.872;2023-04-21T07:28:06;11.50;99.90
7684;DHT22;3884;48.616;12.872;2023-04-21T07:30:33;11.50;1.00
7684;DHT22;3884;48.616;12.872;2023-04-21T07:33:00;11.30;72.90
7684;DHT22;3884;48.616;12.872;2023-04-21T07:35:27;11.20;99.90
7684;DHT22;3884;48.616;12.872;2023-04-21T07:37:54;11.00;99.90
7684;DHT22;3884;48.616;12.872;2023-04-21T07:40:22;11.00;99.90
7684;DHT22;3884;48.616;12.872;2023-04-21T07:42:49;11.00;99.90
7684;DHT22;3884;48.616;12.872;2023-04-21T07:45:16;11.00;99.90
7684;DHT22;3884;48.616;12.872;2023-04-21T07:47:43;11.20;99.90
7684;DHT22;3884;48.616;12.872;2023-04-21T07:50:10;11.20;96.10
7684;DHT22;3884;48.616;12.872;2023-04-21T07:52:37;11.30;99.90
7684;DHT22;3884;48.616;12.872;2023-04-21T07:55:04;11.60;1.00
7684;DHT22;3884;48.616;12.872;2023-04-21T07:57:33;11.90;1.00
7684;DHT22;3884;48.616;12.872;2023-04-21T08:00:03;12.10;1.00
7684;DHT22;3884;48.616;12.872;2023-04-21T08:02:38;12.30;1.00
7684;DHT22;3884;48.616;12.872;2023-04-21T08:05:05;12.40;1.00
7684;DHT22;3884;48.616;12.872;2023-04-21T08:07:32;12.50;1.00
7684;DHT22;3884;48.616;12.872;2023-04-21T08:09:59;12.60;1.00
7684;DHT22;3884;48.616;12.872;2023-04-21T08:12:27;12.50;99.90
7684;DHT22;3884;48.616;12.872;2023-04-21T08:14:55;12.50;99.90
7684;DHT22;3884;48.616;12.872;2023-04-21T08:17:22;12.60;1.00
7684;DHT22;3884;48.616;12.872;2023-04-21T08:19:49;12.80;99.90
7684;DHT22;3884;48.616;12.872;2023-04-21T08:22:16;13.40;99.90
7684;DHT22;3884;48.616;12.872;2023-04-21T08:24:43;13.70;1.00
7684;DHT22;3884;48.616;12.872;2023-04-21T08:27:10;14.00;99.90
7684;DHT22;3884;48.616;12.872;2023-04-21T08:29:37;14.20;99.90
7684;DHT22;3884;48.616;12.872;2023-04-21T08:32:05;14.50;99.90
7684;DHT22;3884;48.616;12.872;2023-04-21T08:34:33;14.40;99.90
7684;DHT22;3884;48.616;12.872;2023-04-21T08:36:59;14.60;99.90
7684;DHT22;3884;48.616;12.872;2023-04-21T08:39:27;14.30;99.90
7684;DHT22;3884;48.616;12.872;2023-04-21T08:41:54;14.40;99.90
7684;DHT22;3884;48.616;12.872;2023-04-21T08:44:21;14.30;99.90
7684;DHT22;3884;48.616;12.872;2023-04-21T08:46:48;14.50;99.90
7684;DHT22;3884;48.616;12.872;2023-04-21T08:52:46;14.60;99.90
7684;DHT22;3884;48.616;12.872;2023-04-21T08:55:13;14.70;99.90
7684;DHT22;3884;48.616;12.872;2023-04-21T08:57:41;14.80;99.90
7684;DHT22;3884;48.616;12.872;2023-04-21T09:00:09;14.90;99.90
7684;DHT22;3884;48.616;12.872;2023-04-21T09:02:52;15.20;99.90
7684;DHT22;3884;48.616;12.872;2023-04-21T09:05:22;15.40;99.90
7684;DHT22;3884;48.616;12.872;2023-04-21T09:07:51;15.80;99.90
7684;DHT22;3884;48.616;12.872;2023-04-21T09:10:21;15.90;99.90
7684;DHT22;3884;48.616;12.872;2023-04-21T09:12:50;16.10;99.90
7684;DHT22;3884;48.616;12.872;2023-04-21T09:15:19;16.20;99.90
7684;DHT22;3884;48.616;12.872;2023-04-21T09:17:46;16.30;99.90
7684;DHT22;3884;48.616;12.872;2023-04-21T09:20:15;16.40;99.90
7684;DHT22;3884;48.616;12.872;2023-04-21T09:22:44;16.40;99.90
7684;DHT22;3884;48.616;12.872;2023-04-21T09:25:15;16.40;66.40
7684;DHT22;3884;48.616;12.872;2023-04-21T09:27:42;16.60;81.80
7684;DHT22;3884;48.616;12.872;2023-04-21T09:30:09;16.60;25.50
7684;DHT22;3884;48.616;12.872;2023-04-21T09:32:39;16.60;18.20
7684;DHT22;3884;48.616;12.872;2023-04-21T09:35:09;16.80;6.70
7684;DHT22;3884;48.616;12.872;2023-04-21T09:37:36;16.70;1.00
7684;DHT22;3884;48.616;12.872;2023-04-21T09:40:06;16.60;1.00
7684;DHT22;3884;48.616;12.872;2023-04-21T09:42:33;17.00;1.00
7684;DHT22;3884;48.616;12.872;2023-04-21T09:45:00;17.10;1.00
7684;DHT22;3884;48.616;12.872;2023-04-21T09:47:28;17.20;1.00
7684;DHT22;3884;48.616;12.872;2023-04-21T09:49:57;17.20;1.00
7684;DHT22;3884;48.616;12.872;2023-04-21T09:52:28;17.30;1.00
7684;DHT22;3884;48.616;12.872;2023-04-21T09:57:57;17.40;1.00
7684;DHT22;3884;48.616;12.872;2023-04-21T10:00:26;17.10;1.00
7684;DHT22;3884;48.616;12.872;2023-04-21T10:02:54;17.20;1.00
7684;DHT22;3884;48.616;12.872;2023-04-21T10:05:22;17.10;1.00
7684;DHT22;3884;48.616;12.872;2023-04-21T10:07:49;17.20;1.00
7684;DHT22;3884;48.616;12.872;2023-04-21T10:10:21;17.20;1.00
7684;DHT22;3884;48.616;12.872;2023-04-21T10:12:49;17.40;1.00
7684;DHT22;3884;48.616;12.872;2023-04-21T10:15:31;17.70;1.00
7684;DHT22;3884;48.616;12.872;2023-04-21T10:18:25;17.60;1.00
7684;DHT22;3884;48.616;12.872;2023-04-21T10:20:55;17.60;1.00
7684;DHT22;3884;48.616;12.872;2023-04-21T10:23:26;17.50;1.00
7684;DHT22;3884;48.616;12.872;2023-04-21T10:25:53;17.40;1.00
7684;DHT22;3884;48.616;12.872;2023-04-21T10:28:42;17.70;1.00
7684;DHT22;3884;48.616;12.872;2023-04-21T10:31:27;17.60;1.00
7684;DHT22;3884;48.616;12.872;2023-04-21T10:34:17;17.80;1.00
7684;DHT22;3884;48.616;12.872;2023-04-21T10:37:07;18.10;1.00
7684;DHT22;3884;48.616;12.872;2023-04-21T10:39:36;18.20;1.00
7684;DHT22;3884;48.616;12.872;2023-04-21T10:42:24;18.20;1.00
7684;DHT22;3884;48.616;12.872;2023-04-21T10:44:59;18.30;1.00
7684;DHT22;3884;48.616;12.872;2023-04-21T10:47:29;18.40;1.00
7684;DHT22;3884;48.616;12.872;2023-04-21T10:50:14;18.60;1.00
7684;DHT22;3884;48.616;12.872;2023-04-21T10:52:46;18.90;1.00
7684;DHT22;3884;48.616;12.872;2023-04-21T10:55:17;18.60;1.00
7684;DHT22;3884;48.616;12.872;2023-04-21T10:57:45;18.70;1.00
7684;DHT22;3884;48.616;12.872;2023-04-21T11:00:17;18.60;1.00
7684;DHT22;3884;48.616;12.872;2023-04-21T11:02:52;18.60;1.00
7684;DHT22;3884;48.616;12.872;2023-04-21T11:05:29;18.60;1.00
7684;DHT22;3884;48.616;12.872;2023-04-21T11:08:04;18.80;1.00
7684;DHT22;3884;48.616;12.872;2023-04-21T11:10:50;18.90;1.00
7684;DHT22;3884;48.616;12.872;2023-04-21T11:13:20;18.60;1.00
7684;DHT22;3884;48.616;12.872;2023-04-21T11:15:58;18.60;1.00
7684;DHT22;3884;48.616;12.872;2023-04-21T11:18:40;18.90;1.00
7684;DHT22;3884;48.616;12.872;2023-04-21T11:21:09;18.60;1.00
7684;DHT22;3884;48.616;12.872;2023-04-21T11:23:38;18.60;1.00
7684;DHT22;3884;48.616;12.872;2023-04-21T11:26:06;18.60;1.00
7684;DHT22;3884;48.616;12.872;2023-04-21T11:28:33;18.40;1.00
7684;DHT22;3884;48.616;12.872;2023-04-21T11:31:00;18.40;1.00
7684;DHT22;3884;48.616;12.872;2023-04-21T11:33:29;18.10;1.00
7684;DHT22;3884;48.616;12.872;2023-04-21T11:35:57;18.10;1.00
7684;DHT22;3884;48.616;12.872;2023-04-21T11:38:25;18.20;1.00
7684;DHT22;3884;48.616;12.872;2023-04-21T11:40:52;18.30;1.00
7684;DHT22;3884;48.616;12.872;2023-04-21T11:43:20;18.50;1.00
7684;DHT22;3884;48.616;12.872;2023-04-21T11:45:48;18.40;1.00
7684;DHT22;3884;48.616;12.872;2023-04-21T11:48:16;18.30;1.00
7684;DHT22;3884;48.616;12.872;2023-04-21T11:50:46;18.10;1.00
7684;DHT22;3884;48.616;12.872;2023-04-21T11:53:15;18.30;1.00
7684;DHT22;3884;48.616;12.872;2023-04-21T11:55:42;18.40;1.00
7684;DHT22;3884;48.616;12.872;2023-04-21T11:58:10;18.50;1.00
7684;DHT22;3884;48.616;12.872;2023-04-21T12:00:42;18.50;1.00
7684;DHT22;3884;48.616;12.872;2023-04-21T12:03:10;18.50;1.00
7684;DHT22;3884;48.616;12.872;2023-04-21T12:05:38;18.40;1.00
7684;DHT22;3884;48.616;12.872;2023-04-21T12:08:05;18.40;1.00
7684;DHT22;3884;48.616;12.872;2023-04-21T12:10:33;18.30;1.00
7684;DHT22;3884;48.616;12.872;2023-04-21T12:13:00;18.30;1.00
7684;DHT22;3884;48.616;12.872;2023-04-21T12:15:29;18.50;1.00
7684;DHT22;3884;48.616;12.872;2023-04-21T12:17:56;18.70;1.00
7684;DHT22;3884;48.616;12.872;2023-04-21T12:20:24;18.90;1.00
7684;DHT22;3884;48.616;12.872;2023-04-21T12:22:51;19.00;1.00
7684;DHT22;3884;48.616;12.872;2023-04-21T12:25:18;19.10;1.00
7684;DHT22;3884;48.616;12.872;2023-04-21T12:27:49;19.20;1.00
7684;DHT22;3884;48.616;12.872;2023-04-21T12:30:16;19.40;1.00
7684;DHT22;3884;48.616;12.872;2023-04-21T12:32:43;19.50;1.00
7684;DHT22;3884;48.616;12.872;2023-04-21T12:35:11;19.40;1.00
7684;DHT22;3884;48.616;12.872;2023-04-21T12:37:38;19.40;1.00
7684;DHT22;3884;48.616;12.872;2023-04-21T12:40:06;19.60;1.00
7684;DHT22;3884;48.616;12.872;2023-04-21T12:42:33;19.50;1.00
7684;DHT22;3884;48.616;12.872;2023-04-21T12:45:01;19.70;1.00
7684;DHT22;3884;48.616;12.872;2023-04-21T12:47:30;19.60;1.00
7684;DHT22;3884;48.616;12.872;2023-04-21T12:49:56;19.60;99.90
7684;DHT22;3884;48.616;12.872;2023-04-21T12:52:23;19.50;1.00
7684;DHT22;3884;48.616;12.872;2023-04-21T12:54:50;19.60;99.90
7684;DHT22;3884;48.616;12.872;2023-04-21T12:57:17;19.50;1.00
7684;DHT22;3884;48.616;12.872;2023-04-21T12:59:44;19.60;1.00
7684;DHT22;3884;48.616;12.872;2023-04-21T13:02:12;19.80;99.90
7684;DHT22;3884;48.616;12.872;2023-04-21T13:04:39;19.80;1.00
7684;DHT22;3884;48.616;12.872;2023-04-21T13:07:07;19.90;99.90
7684;DHT22;3884;48.616;12.872;2023-04-21T13:09:34;19.70;1.00
7684;DHT22;3884;48.616;12.872;2023-04-21T13:12:00;19.80;99.90
7684;DHT22;3884;48.616;12.872;2023-04-21T13:14:27;19.90;99.90
7684;DHT22;3884;48.616;12.872;2023-04-21T13:16:54;20.10;99.90
7684;DHT22;3884;48.616;12.872;2023-04-21T13:19:22;20.10;99.90
7684;DHT22;3884;48.616;12.872;2023-04-21T13:21:50;20.40;99.90
7684;DHT22;3884;48.616;12.872;2023-04-21T13:24:17;20.40;99.90
7684;DHT22;3884;48.616;12.872;2023-04-21T13:26:44;20.30;99.90
7684;DHT22;3884;48.616;12.872;2023-04-21T13:29:10;20.60;99.90
7684;DHT22;3884;48.616;12.872;2023-04-21T13:31:37;20.80;99.90
7684;DHT22;3884;48.616;12.872;2023-04-21T13:34:04;20.80;1.00
7684;DHT22;3884;48.616;12.872;2023-04-21T13:36:32;20.60;99.90
7684;DHT22;3884;48.616;12.872;2023-04-21T13:39:00;20.60;99.90
7684;DHT22;3884;48.616;12.872;2023-04-21T13:41:29;20.40;99.90
7684;DHT22;3884;48.616;12.872;2023-04-21T13:43:56;20.40;99.90
7684;DHT22;3884;48.616;12.872;2023-04-21T13:46:23;20.40;99.90
7684;DHT22;3884;48.616;12.872;2023-04-21T13:48:49;20.30;99.90
7684;DHT22;3884;48.616;12.872;2023-04-21T13:51:17;20.30;99.90
7684;DHT22;3884;48.616;12.872;2023-04-21T13:53:45;20.50;99.90
7684;DHT22;3884;48.616;12.872;2023-04-21T13:56:12;20.60;99.90
7684;DHT22;3884;48.616;12.872;2023-04-21T13:58:39;20.50;99.90
7684;DHT22;3884;48.616;12.872;2023-04-21T14:01:06;20.40;99.90
7684;DHT22;3884;48.616;12.872;2023-04-21T14:03:33;20.40;99.90
7684;DHT22;3884;48.616;12.872;2023-04-21T14:06:00;20.40;99.90
7684;DHT22;3884;48.616;12.872;2023-04-21T14:08:27;20.80;99.90
7684;DHT22;3884;48.616;12.872;2023-04-21T14:10:55;21.00;99.90
7684;DHT22;3884;48.616;12.872;2023-04-21T14:13:23;20.90;99.90
7684;DHT22;3884;48.616;12.872;2023-04-21T14:15:53;20.80;99.90
7684;DHT22;3884;48.616;12.872;2023-04-21T14:18:20;20.70;99.90
7684;DHT22;3884;48.616;12.872;2023-04-21T14:20:47;21.00;99.90
7684;DHT22;3884;48.616;12.872;2023-04-21T14:23:14;21.00;99.90
7684;DHT22;3884;48.616;12.872;2023-04-21T14:25:40;21.10;99.90
7684;DHT22;3884;48.616;12.872;2023-04-21T14:28:09;21.10;99.90
7684;DHT22;3884;48.616;12.872;2023-04-21T14:30:36;21.50;99.90
7684;DHT22;3884;48.616;12.872;2023-04-21T14:33:03;21.50;99.90
7684;DHT22;3884;48.616;12.872;2023-04-21T14:35:30;21.60;99.90
7684;DHT22;3884;48.616;12.872;2023-04-21T14:37:57;21.30;99.90
7684;DHT22;3884;48.616;12.872;2023-04-21T14:40:24;21.20;99.90
7684;DHT22;3884;48.616;12.872;2023-04-21T14:42:51;21.40;99.90
7684;DHT22;3884;48.616;12.872;2023-04-21T14:45:19;21.40;99.90
7684;DHT22;3884;48.616;12.872;2023-04-21T14:47:46;21.40;99.90
7684;DHT22;3884;48.616;12.872;2023-04-21T14:50:13;21.30;99.90
7684;DHT22;3884;48.616;12.872;2023-04-21T14:52:40;21.40;99.90
7684;DHT22;3884;48.616;12.872;2023-04-21T14:55:07;21.30;99.90
7684;DHT22;3884;48.616;12.872;2023-04-21T14:57:35;21.50;99.90
7684;DHT22;3884;48.616;12.872;2023-04-21T15:00:02;21.30;99.90
7684;DHT22;3884;48.616;12.872;2023-04-21T15:02:32;21.50;99.90
7684;DHT22;3884;48.616;12.872;2023-04-21T15:04:58;21.10;99.90
7684;DHT22;3884;48.616;12.872;2023-04-21T15:07:26;21.10;99.90
7684;DHT22;3884;48.616;12.872;2023-04-21T15:09:52;21.10;99.90
7684;DHT22;3884;48.616;12.872;2023-04-21T15:12:20;21.30;99.90
7684;DHT22;3884;48.616;12.872;2023-04-21T15:14:46;21.10;99.90
7684;DHT22;3884;48.616;12.872;2023-04-21T15:17:13;21.20;99.90
7684;DHT22;3884;48.616;12.872;2023-04-21T15:19:41;21.20;99.90
7684;DHT22;3884;48.616;12.872;2023-04-21T15:22:08;20.90;99.90
7684;DHT22;3884;48.616;12.872;2023-04-21T15:24:36;21.10;99.90
7684;DHT22;3884;48.616;12.872;2023-04-21T15:27:03;21.20;99.90
7684;DHT22;3884;48.616;12.872;2023-04-21T15:29:30;20.60;99.90
7684;DHT22;3884;48.616;12.872;2023-04-21T15:31:56;20.60;99.90
7684;DHT22;3884;48.616;12.872;2023-04-21T15:34:23;20.70;99.90
7684;DHT22;3884;48.616;12.872;2023-04-21T15:36:51;20.70;99.90
7684;DHT22;3884;48.616;12.872;2023-04-21T15:39:19;21.00;99.90
7684;DHT22;3884;48.616;12.872;2023-04-21T15:41:46;21.20;99.90
7684;DHT22;3884;48.616;12.872;2023-04-21T15:44:13;21.40;99.90
7684;DHT22;3884;48.616;12.872;2023-04-21T15:46:40;21.20;99.90
7684;DHT22;3884;48.616;12.872;2023-04-21T15:49:07;20.90;99.90
7684;DHT22;3884;48.616;12.872;2023-04-21T15:51:34;21.10;99.90
7684;DHT22;3884;48.616;12.872;2023-04-21T15:54:03;21.50;99.90
7684;DHT22;3884;48.616;12.872;2023-04-21T15:56:29;21.40;99.90
7684;DHT22;3884;48.616;12.872;2023-04-21T15:58:56;21.30;99.90
7684;DHT22;3884;48.616;12.872;2023-04-21T16:01:23;21.00;99.90
7684;DHT22;3884;48.616;12.872;2023-04-21T16:03:50;21.00;99.90
7684;DHT22;3884;48.616;12.872;2023-04-21T16:06:17;20.90;99.90
7684;DHT22;3884;48.616;12.872;2023-04-21T16:08:45;20.90;99.90
7684;DHT22;3884;48.616;12.872;2023-04-21T16:11:13;21.20;99.90